Pine Hills, Florida
Current Conditions -  °F | °C
As of 10:53 PM on Thursday 20 Nov 2014 (Local Time) from KORL Reporting Station
Clear Clear  
Wind Chill: 56°   Ceiling: Unl
Heat Index: 56°   Visibility: 10mi
Dew Point: 43°   Wind: 7mph
Humidity: 62%   Direction: 360°N
Pressure: 30.24"   Gusts: NA
Location:  28.55°N, 81.45°W
Report Text: KORL 210353Z 36006KT 10SM CLR 13/06 A3024 RMK AO2 SLP243 T01330061
Loading
Personal Weather Stations






























Interactive Weather Map New forecast layout! Learn more

10-Day Weather Forecast

Advertisements
Track Severe Weather on mobile